createdAt,value
2018-07-27T00:00:46.671Z,96852.55
2018-07-27T00:03:14.152Z,96849.45
2018-07-27T00:05:41.629Z,96850.61
2018-07-27T00:08:09.065Z,96845.05
2018-07-27T00:10:36.510Z,96849.45
2018-07-27T00:13:03.992Z,96846.91
2018-07-27T00:15:31.435Z,96850.00
2018-07-27T00:17:58.871Z,96848.72
2018-07-27T00:20:26.436Z,96844.77
2018-07-27T00:22:53.935Z,96843.67
2018-07-27T00:25:21.395Z,96851.87
2018-07-27T00:27:48.925Z,96846.27
2018-07-27T00:30:16.382Z,96850.80
2018-07-27T00:32:43.814Z,96850.51
2018-07-27T00:35:11.303Z,96859.13
2018-07-27T00:37:38.778Z,96857.69
2018-07-27T00:40:06.209Z,96847.02
2018-07-27T00:42:33.648Z,96848.52
2018-07-27T00:45:01.132Z,96846.48
2018-07-27T00:47:28.672Z,96846.70
2018-07-27T00:49:56.160Z,96844.27
2018-07-27T00:52:23.676Z,96846.91
2018-07-27T00:54:51.174Z,96841.50
2018-07-27T00:57:18.581Z,96843.95
2018-07-27T00:59:46.023Z,96848.27
2018-07-27T01:02:13.509Z,96845.47
2018-07-27T01:04:40.978Z,96845.86
2018-07-27T01:07:08.434Z,96839.53
2018-07-27T01:09:35.976Z,96839.59
2018-07-27T01:12:03.452Z,96838.33
2018-07-27T01:14:30.916Z,96839.27
2018-07-27T01:16:58.428Z,96825.42
2018-07-27T01:19:25.905Z,96828.97
2018-07-27T01:21:53.355Z,96830.44
2018-07-27T01:24:20.857Z,96832.45
2018-07-27T01:26:48.499Z,96834.66
2018-07-27T01:29:16.001Z,96839.71
2018-07-27T01:31:43.547Z,96837.47
2018-07-27T01:34:11.088Z,96833.38
2018-07-27T01:36:38.534Z,96840.25
2018-07-27T01:39:06.008Z,96832.63
2018-07-27T01:41:33.455Z,96831.09
2018-07-27T01:44:00.946Z,96836.47
2018-07-27T01:46:28.468Z,96832.50
2018-07-27T01:48:55.942Z,96834.23
2018-07-27T01:51:23.384Z,96823.33
2018-07-27T01:53:50.904Z,96824.41
2018-07-27T01:56:18.361Z,96826.20
2018-07-27T01:58:45.948Z,96826.19
2018-07-27T02:01:13.456Z,96830.43
2018-07-27T02:03:40.983Z,96836.65
2018-07-27T02:06:08.421Z,96836.75
2018-07-27T02:08:35.841Z,96823.44
2018-07-27T02:11:03.324Z,96825.02
2018-07-27T02:13:30.822Z,96835.00
2018-07-27T02:15:58.300Z,96831.70
2018-07-27T02:18:25.770Z,96830.86
2018-07-27T02:20:53.254Z,96841.98
2018-07-27T02:23:20.678Z,96835.84
2018-07-27T02:25:48.154Z,96840.69
2018-07-27T02:28:15.768Z,96842.30
2018-07-27T02:30:43.422Z,96837.02
2018-07-27T02:33:10.924Z,96837.27
2018-07-27T02:35:38.433Z,96837.44
2018-07-27T02:38:05.873Z,96828.42
2018-07-27T02:40:33.320Z,96826.50
2018-07-27T02:43:00.816Z,96829.83
2018-07-27T02:45:28.304Z,96830.92
2018-07-27T02:47:55.781Z,96838.47
2018-07-27T02:50:23.231Z,96835.02
2018-07-27T02:52:50.737Z,96833.22
2018-07-27T02:55:18.211Z,96833.84
2018-07-27T02:57:45.701Z,96833.02
2018-07-27T03:00:13.137Z,96827.30
2018-07-27T03:02:40.549Z,96830.26
2018-07-27T03:05:07.994Z,96821.77
2018-07-27T03:07:35.435Z,96823.32
2018-07-27T03:10:02.924Z,96825.92
2018-07-27T03:12:30.431Z,96823.16
2018-07-27T03:14:57.935Z,96823.78
2018-07-27T03:17:25.408Z,96824.31
2018-07-27T03:19:52.871Z,96821.41
2018-07-27T03:22:20.318Z,96823.66
2018-07-27T03:24:47.757Z,96823.32
2018-07-27T03:27:15.244Z,96833.14
2018-07-27T03:29:43.850Z,96822.14
2018-07-27T03:32:11.305Z,96826.35
2018-07-27T03:34:38.783Z,96823.17
2018-07-27T03:37:06.251Z,96820.64
2018-07-27T03:39:33.742Z,96829.13
2018-07-27T03:42:01.208Z,96826.48
2018-07-27T03:44:28.622Z,96823.01
2018-07-27T03:46:56.081Z,96827.41
2018-07-27T03:49:23.550Z,96834.91
2018-07-27T03:51:50.982Z,96842.53
2018-07-27T03:54:18.476Z,96839.43
2018-07-27T03:56:45.965Z,96845.48
2018-07-27T03:59:13.468Z,96839.00
2018-07-27T04:01:40.917Z,96843.06
2018-07-27T04:04:08.375Z,96837.00
2018-07-27T04:06:35.910Z,96840.48
2018-07-27T04:09:03.408Z,96843.77
2018-07-27T04:11:30.899Z,96842.17
2018-07-27T04:13:58.462Z,96840.50
2018-07-27T04:16:25.922Z,96837.99
2018-07-27T04:18:53.388Z,96845.50
2018-07-27T04:21:20.845Z,96843.06
2018-07-27T04:23:48.323Z,96849.52
2018-07-27T04:26:15.824Z,96850.59
2018-07-27T04:28:43.223Z,96844.49
2018-07-27T04:31:10.754Z,96857.19
2018-07-27T04:33:38.475Z,96859.86
2018-07-27T04:36:05.883Z,96857.58
2018-07-27T04:38:33.339Z,96856.97
2018-07-27T04:41:00.815Z,96860.21
2018-07-27T04:43:28.331Z,96856.01
2018-07-27T04:45:55.779Z,96859.66
2018-07-27T04:48:23.414Z,96865.95
2018-07-27T04:50:50.895Z,96861.83
2018-07-27T04:53:18.343Z,96860.47
2018-07-27T04:55:45.779Z,96867.05
2018-07-27T04:58:13.298Z,96869.30
2018-07-27T05:00:40.740Z,96870.41
2018-07-27T05:03:08.236Z,96872.03
2018-07-27T05:05:35.662Z,96876.83
2018-07-27T05:08:03.199Z,96875.66
2018-07-27T05:10:30.831Z,96874.19
2018-07-27T05:12:59.198Z,96878.83
2018-07-27T05:15:27.159Z,96881.16
2018-07-27T05:17:54.592Z,96868.84
2018-07-27T05:20:22.088Z,96873.41
2018-07-27T05:22:49.613Z,96876.31
2018-07-27T05:25:17.117Z,96874.77
2018-07-27T05:27:44.603Z,96876.49
2018-07-27T05:30:12.083Z,96877.29
2018-07-27T05:32:39.556Z,96873.34
2018-07-27T05:35:07.064Z,96875.23
2018-07-27T05:37:34.485Z,96873.33
2018-07-27T05:40:02.097Z,96874.20
2018-07-27T05:42:29.541Z,96867.61
2018-07-27T05:44:57.072Z,96868.14
2018-07-27T05:47:24.510Z,96868.50
2018-07-27T05:49:51.967Z,96865.97
2018-07-27T05:52:19.389Z,96869.98
2018-07-27T05:54:46.835Z,96866.12
2018-07-27T05:57:14.239Z,96861.69
2018-07-27T05:59:41.670Z,96864.19
2018-07-27T06:02:10.437Z,96861.31
2018-07-27T06:04:36.549Z,96865.09
2018-07-27T06:07:04.175Z,96855.63
2018-07-27T06:09:31.630Z,96857.50
2018-07-27T06:11:59.051Z,96855.52
2018-07-27T06:14:26.546Z,96857.74
2018-07-27T06:16:54.036Z,96855.58
2018-07-27T06:19:21.484Z,96864.75
2018-07-27T06:21:48.960Z,96858.22
2018-07-27T06:24:16.564Z,96859.80
2018-07-27T06:26:43.899Z,96853.77
2018-07-27T06:29:11.584Z,96848.03
2018-07-27T06:31:39.035Z,96851.23
2018-07-27T06:34:06.623Z,96862.78
2018-07-27T06:36:34.099Z,96863.47
2018-07-27T06:39:01.599Z,96862.87
2018-07-27T06:41:29.002Z,96863.58
2018-07-27T06:43:56.445Z,96860.19
2018-07-27T06:46:23.880Z,96857.21
2018-07-27T06:48:51.423Z,96860.23
2018-07-27T06:51:19.129Z,96858.58
2018-07-27T06:53:46.700Z,96859.48
2018-07-27T06:56:14.147Z,96861.03
2018-07-27T06:58:41.645Z,96864.56
2018-07-27T07:01:09.164Z,96862.22
2018-07-27T07:03:36.621Z,96866.19
2018-07-27T07:06:04.080Z,96864.86
2018-07-27T07:08:31.544Z,96852.87
2018-07-27T07:10:59.042Z,96856.27
2018-07-27T07:13:26.484Z,96857.84
2018-07-27T07:15:53.997Z,96854.53
2018-07-27T07:18:21.590Z,96853.16
2018-07-27T07:20:49.110Z,96857.19
2018-07-27T07:23:16.601Z,96855.09
2018-07-27T07:25:44.206Z,96856.72
2018-07-27T07:28:11.569Z,96858.30
2018-07-27T07:30:38.983Z,96854.92
2018-07-27T07:33:06.477Z,96851.11
2018-07-27T07:35:34.056Z,96842.92
2018-07-27T07:38:01.544Z,96836.21
2018-07-27T07:40:29.843Z,96841.01
2018-07-27T07:42:57.457Z,96840.25
2018-07-27T07:45:24.953Z,96841.93
2018-07-27T07:47:52.497Z,96842.34
2018-07-27T07:50:19.952Z,96846.78
2018-07-27T07:52:47.525Z,96843.67
2018-07-27T07:55:15.351Z,96842.48
2018-07-27T07:57:42.795Z,96838.14
2018-07-27T08:00:10.271Z,96834.22
2018-07-27T08:02:37.864Z,96834.42
2018-07-27T08:05:05.290Z,96838.70
2018-07-27T08:07:32.824Z,96832.09
2018-07-27T08:10:00.438Z,96832.77
2018-07-27T08:12:27.941Z,96827.52
2018-07-27T08:14:55.361Z,96828.22
2018-07-27T08:17:22.899Z,96828.52
2018-07-27T08:19:50.436Z,96821.67
2018-07-27T08:22:17.894Z,96825.69
2018-07-27T08:24:45.463Z,96819.03
2018-07-27T08:27:12.996Z,96822.91
2018-07-27T08:29:40.611Z,96823.22
2018-07-27T08:32:08.349Z,96820.23
2018-07-27T08:34:35.808Z,96821.51
2018-07-27T08:37:03.257Z,96821.24
2018-07-27T08:39:30.744Z,96809.58
2018-07-27T08:41:58.233Z,96816.63
2018-07-27T08:44:25.773Z,96820.07
2018-07-27T08:46:53.247Z,96820.16
2018-07-27T08:49:20.707Z,96815.66
2018-07-27T08:51:48.219Z,96817.48
2018-07-27T08:54:15.707Z,96806.63
2018-07-27T08:56:43.185Z,96810.52
2018-07-27T08:59:10.727Z,96809.55
2018-07-27T09:01:38.234Z,96807.08
2018-07-27T09:04:05.919Z,96807.49
2018-07-27T09:06:32.935Z,96802.73
2018-07-27T09:09:00.575Z,96793.50
2018-07-27T09:11:27.665Z,96803.12
2018-07-27T09:13:54.783Z,96801.13
2018-07-27T09:16:21.833Z,96808.84
2018-07-27T09:18:48.981Z,96796.63
2018-07-27T09:21:16.593Z,96797.50
2018-07-27T09:26:26.916Z,96791.94
2018-07-27T09:28:54.302Z,96786.70
2018-07-27T09:31:21.350Z,96790.59
2018-07-27T09:33:48.477Z,96780.23
2018-07-27T09:36:15.917Z,96784.25
2018-07-27T09:38:43.505Z,96780.49
2018-07-27T09:41:10.939Z,96778.98
2018-07-27T09:43:37.968Z,96789.78
2018-07-27T09:46:05.010Z,96781.85
2018-07-27T09:48:32.029Z,96787.72
2018-07-27T09:50:59.064Z,96788.16
2018-07-27T09:53:26.064Z,96782.50
2018-07-27T09:55:53.501Z,96789.28
2018-07-27T09:58:20.511Z,96780.44
2018-07-27T10:00:47.573Z,96780.70
2018-07-27T10:03:14.610Z,96773.81
2018-07-27T10:05:41.757Z,96773.78
2018-07-27T10:08:08.846Z,96779.52
2018-07-27T10:10:35.896Z,96772.03
2018-07-27T10:13:02.937Z,96776.63
2018-07-27T10:15:30.392Z,96777.25
2018-07-27T10:17:57.832Z,96776.39
2018-07-27T10:20:25.449Z,96773.52
2018-07-27T10:22:52.397Z,96779.00
2018-07-27T10:25:19.402Z,96774.42
2018-07-27T10:27:46.478Z,96777.18
2018-07-27T10:30:13.630Z,96774.71
2018-07-27T10:32:40.595Z,96770.74
2018-07-27T10:35:07.660Z,96771.33
2018-07-27T10:37:34.652Z,96766.53
2018-07-27T10:40:01.644Z,96763.47
2018-07-27T10:42:28.634Z,96768.81
2018-07-27T10:44:55.717Z,96761.63
2018-07-27T10:47:22.921Z,96754.44
2018-07-27T10:49:50.072Z,96752.23
2018-07-27T10:52:17.140Z,96747.45
2018-07-27T10:54:44.257Z,96743.38
2018-07-27T10:57:11.274Z,96746.97
2018-07-27T10:59:38.257Z,96744.55
2018-07-27T11:02:05.722Z,96740.37
2018-07-27T11:04:32.793Z,96739.16
2018-07-27T11:06:59.782Z,96735.00
2018-07-27T11:09:27.094Z,96736.98
2018-07-27T11:11:54.104Z,96734.16
2018-07-27T11:14:21.528Z,96730.63
2018-07-27T11:16:49.070Z,96730.16
2018-07-27T11:19:16.505Z,96726.39
2018-07-27T11:21:43.981Z,96714.40
2018-07-27T11:24:11.454Z,96721.34
2018-07-27T11:26:38.964Z,96717.80
2018-07-27T11:29:05.961Z,96709.37
2018-07-27T11:31:33.084Z,96718.73
2018-07-27T11:34:00.113Z,96712.73
2018-07-27T11:36:27.129Z,96713.42
2018-07-27T11:38:54.690Z,96710.17
2018-07-27T11:41:21.667Z,96708.13
2018-07-27T11:43:48.724Z,96702.84
2018-07-27T11:46:15.670Z,96700.36
2018-07-27T11:48:42.668Z,96689.72
2018-07-27T11:51:09.668Z,96692.22
2018-07-27T11:53:36.678Z,96687.84
2018-07-27T11:56:04.192Z,96686.45
2018-07-27T11:58:31.148Z,96683.42
2018-07-27T12:00:58.230Z,96681.38
2018-07-27T12:03:25.273Z,96680.23
2018-07-27T12:05:52.318Z,96675.39
2018-07-27T12:08:19.782Z,96673.70
2018-07-27T12:10:47.280Z,96676.66
2018-07-27T12:13:14.750Z,96675.00
2018-07-27T12:15:42.633Z,96674.61
2018-07-27T12:18:10.133Z,96672.49
2018-07-27T12:20:37.163Z,96668.84
2018-07-27T12:23:04.852Z,96667.25
2018-07-27T12:25:32.328Z,96664.85
2018-07-27T12:27:59.377Z,96666.13
2018-07-27T12:30:26.897Z,96663.36
2018-07-27T12:32:55.047Z,96660.52
2018-07-27T12:35:22.525Z,96663.34
2018-07-27T12:37:50.004Z,96653.78
2018-07-27T12:40:17.481Z,96655.87
2018-07-27T12:42:44.984Z,96649.84
2018-07-27T12:45:12.022Z,96654.91
2018-07-27T12:47:39.605Z,96652.97
2018-07-27T12:50:07.110Z,96645.54
2018-07-27T12:52:34.638Z,96645.36
2018-07-27T12:55:02.127Z,96646.27
2018-07-27T12:57:29.603Z,96644.95
2018-07-27T12:59:56.630Z,96641.12
2018-07-27T13:02:24.092Z,96639.52
2018-07-27T13:04:51.513Z,96641.70
2018-07-27T13:07:19.018Z,96630.73
2018-07-27T13:09:46.475Z,96624.73
2018-07-27T13:12:14.092Z,96624.02
2018-07-27T13:14:41.041Z,96625.97
2018-07-27T13:17:08.005Z,96627.66
2018-07-27T13:19:35.031Z,96618.29
2018-07-27T13:22:02.070Z,96615.39
2018-07-27T13:26:56.775Z,96602.36
2018-07-27T13:29:24.236Z,96603.95
2018-07-27T13:31:51.655Z,96599.11
2018-07-27T13:34:19.147Z,96592.20
2018-07-27T13:36:46.563Z,96589.32
2018-07-27T13:39:14.103Z,96587.62
2018-07-27T13:41:41.557Z,96585.72
2018-07-27T13:44:09.013Z,96579.61
2018-07-27T13:46:36.477Z,96577.91
2018-07-27T13:49:03.979Z,96578.84
2018-07-27T13:51:31.489Z,96576.48
2018-07-27T13:53:58.989Z,96573.20
2018-07-27T13:56:26.489Z,96575.19
2018-07-27T13:58:54.020Z,96560.88
2018-07-27T14:01:21.435Z,96565.79
2018-07-27T14:03:48.896Z,96557.17
2018-07-27T14:06:16.398Z,96545.69
2018-07-27T14:08:43.887Z,96550.73
2018-07-27T14:11:11.378Z,96548.95
2018-07-27T14:13:38.829Z,96554.28
2018-07-27T14:16:06.339Z,96550.47
2018-07-27T14:18:33.812Z,96544.16
2018-07-27T14:21:01.504Z,96546.62
2018-07-27T14:23:28.497Z,96545.14
2018-07-27T14:25:56.000Z,96536.39
2018-07-27T14:28:23.491Z,96541.25
2018-07-27T14:30:50.915Z,96535.75
2018-07-27T14:33:18.437Z,96536.08
2018-07-27T14:35:45.888Z,96530.83
2018-07-27T14:38:13.425Z,96530.12
2018-07-27T14:40:40.862Z,96528.45
2018-07-27T14:43:08.359Z,96531.48
2018-07-27T14:45:35.762Z,96536.73
2018-07-27T14:48:03.305Z,96529.68
2018-07-27T14:50:30.783Z,96528.09
2018-07-27T14:52:58.226Z,96534.00
2018-07-27T14:55:25.732Z,96530.43
2018-07-27T14:57:53.191Z,96523.08
2018-07-27T15:00:20.655Z,96528.14
2018-07-27T15:02:48.324Z,96530.53
2018-07-27T15:05:15.823Z,96527.39
2018-07-27T15:07:43.311Z,96523.05
2018-07-27T15:10:10.943Z,96515.16
2018-07-27T15:12:38.422Z,96522.95
2018-07-27T15:15:06.011Z,96510.27
2018-07-27T15:17:33.496Z,96512.25
2018-07-27T15:20:00.964Z,96518.11
2018-07-27T15:22:28.465Z,96514.73
2018-07-27T15:24:56.019Z,96515.47
2018-07-27T15:27:23.476Z,96510.31
2018-07-27T15:29:50.967Z,96513.36
2018-07-27T15:32:18.641Z,96511.50
2018-07-27T15:34:46.145Z,96511.53
2018-07-27T15:37:13.774Z,96510.84
2018-07-27T15:39:41.245Z,96505.94
2018-07-27T15:42:08.742Z,96507.00
2018-07-27T15:44:36.191Z,96508.17
2018-07-27T15:47:03.686Z,96503.12
2018-07-27T15:49:31.223Z,96502.87
2018-07-27T15:51:58.745Z,96501.61
2018-07-27T15:54:27.641Z,96496.36
2018-07-27T15:56:55.199Z,96492.30
2018-07-27T15:59:22.684Z,96494.17
2018-07-27T16:01:50.142Z,96490.78
2018-07-27T16:04:17.930Z,96489.08
2018-07-27T16:06:45.597Z,96485.00
2018-07-27T16:09:13.081Z,96480.52
2018-07-27T16:11:40.998Z,96481.06
2018-07-27T16:14:08.466Z,96475.61
2018-07-27T16:16:35.941Z,96474.66
2018-07-27T16:19:03.485Z,96470.84
2018-07-27T16:21:30.976Z,96470.84
2018-07-27T16:23:58.445Z,96461.50
2018-07-27T16:26:25.953Z,96464.54
2018-07-27T16:28:53.528Z,96462.56
2018-07-27T16:31:20.983Z,96461.23
2018-07-27T16:33:48.412Z,96459.42
2018-07-27T16:36:16.323Z,96460.72
2018-07-27T16:38:43.736Z,96461.08
2018-07-27T16:41:11.248Z,96449.94
2018-07-27T16:43:38.739Z,96449.37
2018-07-27T16:46:06.251Z,96446.52
2018-07-27T16:48:34.454Z,96442.98
2018-07-27T16:51:01.887Z,96443.95
2018-07-27T16:53:29.365Z,96443.16
2018-07-27T16:55:56.916Z,96445.27
2018-07-27T16:58:24.434Z,96440.13
2018-07-27T17:00:51.877Z,96445.89
2018-07-27T17:03:19.509Z,96450.52
2018-07-27T17:05:47.082Z,96453.12
2018-07-27T17:08:14.659Z,96452.98
2018-07-27T17:10:42.164Z,96456.37
2018-07-27T17:13:09.746Z,96459.30
2018-07-27T17:15:37.263Z,96449.91
2018-07-27T17:18:04.718Z,96461.29
2018-07-27T17:20:32.190Z,96460.20
2018-07-27T17:22:59.722Z,96460.99
2018-07-27T17:25:27.347Z,96470.59
2018-07-27T17:27:54.792Z,96473.61
2018-07-27T17:30:22.289Z,96471.28
2018-07-27T17:32:49.800Z,96469.34
2018-07-27T17:35:17.230Z,96466.00
2018-07-27T17:37:44.804Z,96470.75
2018-07-27T17:40:12.304Z,96469.38
2018-07-27T17:42:39.991Z,96469.13
2018-07-27T17:45:07.393Z,96472.76
2018-07-27T17:47:34.857Z,96472.27
2018-07-27T17:50:02.296Z,96475.07
2018-07-27T17:52:29.766Z,96472.91
2018-07-27T17:54:57.285Z,96477.45
2018-07-27T17:57:24.687Z,96479.17
2018-07-27T17:59:52.194Z,96480.07
2018-07-27T18:02:19.625Z,96487.13
2018-07-27T18:04:47.319Z,96487.97
2018-07-27T18:07:14.938Z,96491.81
2018-07-27T18:09:42.498Z,96485.01
2018-07-27T18:12:10.142Z,96486.73
2018-07-27T18:14:37.631Z,96495.51
2018-07-27T18:17:05.083Z,96493.41
2018-07-27T18:19:32.676Z,96495.08
2018-07-27T18:22:00.208Z,96496.39
2018-07-27T18:24:27.714Z,96494.93
2018-07-27T18:26:55.168Z,96494.86
2018-07-27T18:29:22.750Z,96505.98
2018-07-27T18:31:50.203Z,96503.30
2018-07-27T18:34:17.653Z,96494.05
2018-07-27T18:36:45.122Z,96498.89
2018-07-27T18:39:12.637Z,96505.59
2018-07-27T18:41:40.060Z,96500.67
2018-07-27T18:44:07.531Z,96498.52
2018-07-27T18:46:34.980Z,96501.34
2018-07-27T18:49:02.446Z,96512.01
2018-07-27T18:51:29.971Z,96506.20
2018-07-27T18:53:57.508Z,96510.47
2018-07-27T18:56:24.971Z,96510.60
2018-07-27T18:58:52.469Z,96510.81
2018-07-27T19:01:19.934Z,96510.81
2018-07-27T19:03:47.367Z,96507.11
2018-07-27T19:06:14.920Z,96518.87
2018-07-27T19:08:42.386Z,96516.17
2018-07-27T19:11:09.920Z,96515.53
2018-07-27T19:13:37.490Z,96518.63
2018-07-27T19:16:05.038Z,96519.26
2018-07-27T19:18:32.541Z,96518.90
2018-07-27T19:20:59.990Z,96529.09
2018-07-27T19:23:27.532Z,96529.62
2018-07-27T19:25:54.907Z,96525.66
2018-07-27T19:28:22.327Z,96531.44
2018-07-27T19:30:49.931Z,96537.73
2018-07-27T19:33:17.350Z,96542.58
2018-07-27T19:35:44.816Z,96544.84
2018-07-27T19:38:12.338Z,96552.32
2018-07-27T19:40:39.771Z,96551.93
2018-07-27T19:43:07.164Z,96554.93
2018-07-27T19:45:34.808Z,96550.45
2018-07-27T19:48:02.339Z,96562.20
2018-07-27T19:50:29.761Z,96558.95
2018-07-27T19:52:57.225Z,96556.13
2018-07-27T19:55:24.650Z,96560.07
2018-07-27T19:57:52.133Z,96564.41
2018-07-27T20:00:19.577Z,96565.12
2018-07-27T20:02:47.019Z,96555.51
2018-07-27T20:05:14.507Z,96562.02
2018-07-27T20:07:42.173Z,96563.52
2018-07-27T20:10:09.827Z,96561.54
2018-07-27T20:12:37.299Z,96557.83
2018-07-27T20:15:04.711Z,96564.18
2018-07-27T20:17:32.198Z,96568.86
2018-07-27T20:19:59.882Z,96565.06
2018-07-27T20:22:27.351Z,96563.68
2018-07-27T20:24:54.933Z,96573.09
2018-07-27T20:27:22.438Z,96571.02
2018-07-27T20:29:49.929Z,96566.53
2018-07-27T20:32:17.420Z,96567.22
2018-07-27T20:34:45.050Z,96570.11
2018-07-27T20:37:12.703Z,96563.48
2018-07-27T20:39:40.456Z,96570.11
2018-07-27T20:42:07.881Z,96564.52
2018-07-27T20:44:35.363Z,96569.69
2018-07-27T20:47:02.798Z,96573.34
2018-07-27T20:49:30.244Z,96571.26
2018-07-27T20:51:57.670Z,96563.91
2018-07-27T20:54:25.217Z,96569.87
2018-07-27T20:56:52.671Z,96570.65
2018-07-27T20:59:20.168Z,96569.59
2018-07-27T21:01:47.610Z,96570.81
2018-07-27T21:04:15.203Z,96566.94
2018-07-27T21:06:42.748Z,96569.64
2018-07-27T21:09:10.237Z,96571.48
2018-07-27T21:11:37.780Z,96568.02
2018-07-27T21:14:05.297Z,96572.81
2018-07-27T21:16:32.796Z,96569.05
2018-07-27T21:19:00.227Z,96564.92
2018-07-27T21:21:27.720Z,96568.24
2018-07-27T21:23:55.257Z,96569.25
2018-07-27T21:26:22.955Z,96562.69
2018-07-27T21:28:50.455Z,96567.14
2018-07-27T21:31:17.916Z,96563.59
2018-07-27T21:33:45.419Z,96565.86
2018-07-27T21:36:12.919Z,96559.12
2018-07-27T21:38:40.411Z,96560.59
2018-07-27T21:41:07.979Z,96555.64
2018-07-27T21:43:35.536Z,96554.88
2018-07-27T21:46:03.047Z,96559.98
2018-07-27T21:48:30.493Z,96554.38
2018-07-27T21:50:57.992Z,96556.30
2018-07-27T21:53:25.449Z,96561.66
2018-07-27T21:55:53.044Z,96558.35
2018-07-27T21:58:20.592Z,96559.78
2018-07-27T22:00:48.061Z,96564.95
2018-07-27T22:03:15.568Z,96572.48
2018-07-27T22:05:43.305Z,96564.53
2018-07-27T22:08:10.795Z,96562.91
2018-07-27T22:10:38.249Z,96557.59
2018-07-27T22:13:05.689Z,96557.55
2018-07-27T22:15:33.142Z,96559.13
2018-07-27T22:18:00.608Z,96567.66
2018-07-27T22:20:28.110Z,96566.13
2018-07-27T22:22:55.564Z,96565.84
2018-07-27T22:25:23.014Z,96568.97
2018-07-27T22:27:50.461Z,96574.17
2018-07-27T22:30:18.051Z,96573.17
2018-07-27T22:32:45.468Z,96579.11
2018-07-27T22:35:13.023Z,96582.93
2018-07-27T22:37:40.484Z,96585.53
2018-07-27T22:40:07.926Z,96591.44
2018-07-27T22:42:35.383Z,96590.18
2018-07-27T22:45:02.829Z,96591.02
2018-07-27T22:47:30.312Z,96597.14
2018-07-27T22:49:57.748Z,96604.92
2018-07-27T22:52:25.198Z,96604.09
2018-07-27T22:54:52.602Z,96609.89
2018-07-27T22:57:20.049Z,96608.02
2018-07-27T22:59:47.610Z,96601.31
2018-07-27T23:02:15.091Z,96602.67
2018-07-27T23:04:42.552Z,96609.51
2018-07-27T23:07:10.909Z,96604.13
2018-07-27T23:09:38.426Z,96605.26
2018-07-27T23:12:05.968Z,96598.63
2018-07-27T23:14:33.435Z,96600.39
2018-07-27T23:17:00.982Z,96603.89
2018-07-27T23:19:28.584Z,96607.41
2018-07-27T23:21:56.025Z,96604.94
2018-07-27T23:24:23.474Z,96603.16
2018-07-27T23:26:50.894Z,96599.75
2018-07-27T23:29:18.328Z,96603.67
2018-07-27T23:31:45.826Z,96597.78
2018-07-27T23:34:13.344Z,96598.42
2018-07-27T23:36:40.783Z,96594.98
2018-07-27T23:39:08.248Z,96587.22
2018-07-27T23:41:35.678Z,96591.77
2018-07-27T23:44:03.187Z,96588.58
2018-07-27T23:46:30.698Z,96587.73
2018-07-27T23:48:58.242Z,96586.72
2018-07-27T23:51:26.805Z,96583.50
2018-07-27T23:53:54.270Z,96582.88
2018-07-27T23:56:21.702Z,96582.16
2018-07-27T23:58:49.156Z,96579.17
